首页
METAR-TAF:

METAR-TAF

机场 :

萊斯布里奇, 艾伯塔, 加拿大

纬度: 49-38N, 经度: 112-48W, 海拔: 929米

当前天气观测

该预报发布于57分钟前的11:00 UTC
风速5节,风向东南
温度 -4°C
湿度 80%
气压 1022 hPa
能見度: 14.5公里
少量云层高于22000英尺
散云层高于24000英尺

METAR: CYQL 091100Z AUTO 14005KT 9SM FEW220 SCT240 M04/M07 A3018 RMK SLP258

时间: 05:57 (11:57 UTC)

预报

该预报发布于6小时和19分钟前的05:38 UTC
预报有效从09日的 06点(UTC)到 09日的 18点(UTC)
风速7节,风向东转东南
能見度: 10公里
少量云层高于30000英尺
成为
从 09日的 11点(UTC)到 09日的 13点(UTC)
风速3节,风向多变
多云层高于23000英尺
从 09日的 1600点(UTC)
风速8节,风向
能見度: 10公里
少量云层高于16000英尺
多云层高于23000英尺

TAF: CYQL 090538Z 0906/0918 12007KT P6SM FEW300 BECMG 0911/0913 VRB03KT BKN230 FM091600 18008KT P6SM FEW160 BKN230 RMK FCST BASED ON AUTO OBS. NXT FCST BY 091200Z

超过4000个机场的气象观测和天气预报(METAR&TAF报告)。

可查询的气象台以黄色和红色小点在地图上表示。

将鼠标移到小点上方,可查看气象台名称。

然后点击查看天气观测和预报。

如需切换地图:点击带黑十字的绿色按钮放大地图;点击带横线的绿色按钮缩小地图;或者点击绿色箭头查看邻近地区的地图。


METAR-TAF: